Station Historical Data
Daily Summary for February 6, 2017 Units:  Both    English   Metric
« Previous Day
Next Day »
Daily Weekly Monthly Yearly Custom
  High: Low: Average:
Temperature: 36.3 °F /  2.4 °C 19.9 °F /  -6.7 °C 29 °F /  -1.7 °C
Dew Point: 26.2 °F /  -3.2 °C 14.5 °F /  -9.7 °C 21.1 °F /  -6.1 °C
Humidity: 82% 63% 72%
Wind Speed: 11.0mph /  17.7km/h - 2.6mph /  4.2km/h
Wind Gust: 15.0mph /  24.1km/h - -
Wind- - SW
Pressure: 30.16 in /  1021.2 hPa 29.91 in /  1012.8 hPa -
Precipitation: 0.00 in /  0 mm    
Historical Graphs
 
 
Tabular Data for February 6, 2017
Time Temperature Dew Point Pressure Wind Wind Speed Wind Gust Humidity Rainfall Rate (Hourly)
00:04 28.4 °F /  -2 °C 19.5 °F /  -6.9 °C 30.07in /  1018.2hPa West 5.0mph /  8km/h 12.0mph /  19.3km/h 69% 0.00in /  0mm
00:09 28.3 °F /  -2.1 °C 19.4 °F /  -7 °C 30.07in /  1018.2hPa WNW 5.0mph /  8km/h 10.0mph /  16.1km/h 69% 0.00in /  0mm
00:14 28.0 °F /  -2.2 °C 19.1 °F /  -7.2 °C 30.07in /  1018.2hPa WNW 5.0mph /  8km/h 10.0mph /  16.1km/h 69% 0.00in /  0mm
00:19 27.7 °F /  -2.4 °C 19.2 °F /  -7.1 °C 30.07in /  1018.2hPa WNW 5.0mph /  8km/h 11.0mph /  17.7km/h 70% 0.00in /  0mm
00:24 27.5 °F /  -2.5 °C 19.0 °F /  -7.2 °C 30.07in /  1018.2hPa West 2.0mph /  3.2km/h 7.0mph /  11.3km/h 70% 0.00in /  0mm
00:29 27.1 °F /  -2.7 °C 18.9 °F /  -7.3 °C 30.07in /  1018.2hPa WNW 4.0mph /  6.4km/h 8.0mph /  12.9km/h 71% 0.00in /  0mm
00:34 27.1 °F /  -2.7 °C 18.9 °F /  -7.3 °C 30.07in /  1018.2hPa WNW 5.0mph /  8km/h 11.0mph /  17.7km/h 71% 0.00in /  0mm
00:39 27.0 °F /  -2.8 °C 18.8 °F /  -7.3 °C 30.08in /  1018.5hPa WNW 4.0mph /  6.4km/h 11.0mph /  17.7km/h 71% 0.00in /  0mm
00:44 26.8 °F /  -2.9 °C 18.7 °F /  -7.4 °C 30.08in /  1018.5hPa West 5.0mph /  8km/h 8.0mph /  12.9km/h 71% 0.00in /  0mm
00:49 26.6 °F /  -3 °C 18.5 °F /  -7.5 °C 30.08in /  1018.5hPa WNW 5.0mph /  8km/h 6.0mph /  9.7km/h 71% 0.00in /  0mm
00:54 26.3 °F /  -3.2 °C 18.5 °F /  -7.5 °C 30.08in /  1018.5hPa WNW 2.0mph /  3.2km/h 5.0mph /  8km/h 72% 0.00in /  0mm
00:59 26.3 °F /  -3.2 °C 18.5 °F /  -7.5 °C 30.08in /  1018.5hPa West 3.0mph /  4.8km/h 7.0mph /  11.3km/h 72% 0.00in /  0mm
01:04 26.2 °F /  -3.2 °C 18.4 °F /  -7.6 °C 30.08in /  1018.5hPa West 4.0mph /  6.4km/h 7.0mph /  11.3km/h 72% 0.00in /  0mm
01:09 26.1 °F /  -3.3 °C 18.3 °F /  -7.6 °C 30.09in /  1018.8hPa West 4.0mph /  6.4km/h 7.0mph /  11.3km/h 72% 0.00in /  0mm
01:14 26.1 °F /  -3.3 °C 18.3 °F /  -7.6 °C 30.09in /  1018.8hPa West 4.0mph /  6.4km/h 7.0mph /  11.3km/h 72% 0.00in /  0mm
01:19 26.0 °F /  -3.3 °C 18.2 °F /  -7.7 °C 30.09in /  1018.8hPa WNW 6.0mph /  9.7km/h 8.0mph /  12.9km/h 72% 0.00in /  0mm
01:24 25.9 °F /  -3.4 °C 18.4 °F /  -7.6 °C 30.09in /  1018.8hPa WNW 3.0mph /  4.8km/h 6.0mph /  9.7km/h 73% 0.00in /  0mm
01:29 25.7 °F /  -3.5 °C 18.2 °F /  -7.7 °C 30.09in /  1018.8hPa West 4.0mph /  6.4km/h 6.0mph /  9.7km/h 73% 0.00in /  0mm
01:34 25.6 °F /  -3.6 °C 18.5 °F /  -7.5 °C 30.09in /  1018.8hPa West 4.0mph /  6.4km/h 6.0mph /  9.7km/h 74% 0.00in /  0mm
01:39 25.6 °F /  -3.6 °C 18.5 °F /  -7.5 °C 30.09in /  1018.8hPa West 3.0mph /  4.8km/h 7.0mph /  11.3km/h 74% 0.00in /  0mm
01:44 25.5 °F /  -3.6 °C 18.4 °F /  -7.6 °C 30.09in /  1018.8hPa West 3.0mph /  4.8km/h 7.0mph /  11.3km/h 74% 0.00in /  0mm
01:49 25.2 °F /  -3.8 °C 18.1 °F /  -7.7 °C 30.09in /  1018.8hPa WSW 2.0mph /  3.2km/h 4.0mph /  6.4km/h 74% 0.00in /  0mm
01:54 25.2 °F /  -3.8 °C 18.4 °F /  -7.6 °C 30.09in /  1018.8hPa West 2.0mph /  3.2km/h 7.0mph /  11.3km/h 75% 0.00in /  0mm
01:59 25.2 °F /  -3.8 °C 18.4 °F /  -7.6 °C 30.09in /  1018.8hPa West 1.0mph /  1.6km/h 6.0mph /  9.7km/h 75% 0.00in /  0mm
02:04 25.1 °F /  -3.8 °C 18.3 °F /  -7.6 °C 30.10in /  1019.2hPa West 2.0mph /  3.2km/h 4.0mph /  6.4km/h 75% 0.00in /  0mm
02:09 25.0 °F /  -3.9 °C 18.2 °F /  -7.7 °C 30.09in /  1018.8hPa West 2.0mph /  3.2km/h 4.0mph /  6.4km/h 75% 0.00in /  0mm
02:14 25.0 °F /  -3.9 °C 18.2 °F /  -7.7 °C 30.09in /  1018.8hPa West 2.0mph /  3.2km/h 5.0mph /  8km/h 75% 0.00in /  0mm
02:19 24.8 °F /  -4 °C 18.0 °F /  -7.8 °C 30.09in /  1018.8hPa West 2.0mph /  3.2km/h 5.0mph /  8km/h 75% 0.00in /  0mm
02:24 24.5 °F /  -4.2 °C 17.7 °F /  -7.9 °C 30.10in /  1019.2hPa West 2.0mph /  3.2km/h 5.0mph /  8km/h 75% 0.00in /  0mm
02:29 24.1 °F /  -4.4 °C 17.3 °F /  -8.2 °C 30.10in /  1019.2hPa WNW 1.0mph /  1.6km/h 4.0mph /  6.4km/h 75% 0.00in /  0mm
02:34 24.1 °F /  -4.4 °C 17.6 °F /  -8 °C 30.10in /  1019.2hPa West 2.0mph /  3.2km/h 7.0mph /  11.3km/h 76% 0.00in /  0mm
02:39 24.1 °F /  -4.4 °C 17.6 °F /  -8 °C 30.10in /  1019.2hPa West 2.0mph /  3.2km/h 7.0mph /  11.3km/h 76% 0.00in /  0mm
02:44 24.2 °F /  -4.3 °C 17.4 °F /  -8.1 °C 30.10in /  1019.2hPa West 2.0mph /  3.2km/h 6.0mph /  9.7km/h 75% 0.00in /  0mm
02:49 23.9 °F /  -4.5 °C 17.1 °F /  -8.3 °C 30.11in /  1019.5hPa West 1.0mph /  1.6km/h 5.0mph /  8km/h 75% 0.00in /  0mm
02:54 23.8 °F /  -4.6 °C 17.0 °F /  -8.3 °C 30.10in /  1019.2hPa WNW 4.0mph /  6.4km/h 4.0mph /  6.4km/h 75% 0.00in /  0mm
02:59 23.8 °F /  -4.6 °C 17.0 °F /  -8.3 °C 30.11in /  1019.5hPa West 1.0mph /  1.6km/h 4.0mph /  6.4km/h 75% 0.00in /  0mm
03:04 23.7 °F /  -4.6 °C 16.9 °F /  -8.4 °C 30.11in /  1019.5hPa West 1.0mph /  1.6km/h 4.0mph /  6.4km/h 75% 0.00in /  0mm
03:09 23.7 °F /  -4.6 °C 16.9 °F /  -8.4 °C 30.11in /  1019.5hPa West 2.0mph /  3.2km/h 4.0mph /  6.4km/h 75% 0.00in /  0mm
03:14 23.5 °F /  -4.7 °C 16.7 °F /  -8.5 °C 30.11in /  1019.5hPa West 1.0mph /  1.6km/h 4.0mph /  6.4km/h 75% 0.00in /  0mm
03:19 23.4 °F /  -4.8 °C 16.6 °F /  -8.6 °C 30.12in /  1019.9hPa West 2.0mph /  3.2km/h 5.0mph /  8km/h 75% 0.00in /  0mm
03:24 23.4 °F /  -4.8 °C 16.6 °F /  -8.6 °C 30.12in /  1019.9hPa WNW 2.0mph /  3.2km/h 5.0mph /  8km/h 75% 0.00in /  0mm
03:29 23.5 °F /  -4.7 °C 16.7 °F /  -8.5 °C 30.11in /  1019.5hPa WNW 1.0mph /  1.6km/h 4.0mph /  6.4km/h 75% 0.00in /  0mm
03:34 23.4 °F /  -4.8 °C 16.6 °F /  -8.6 °C 30.11in /  1019.5hPa WNW 4.0mph /  6.4km/h 5.0mph /  8km/h 75% 0.00in /  0mm
03:39 23.4 °F /  -4.8 °C 16.3 °F /  -8.7 °C 30.11in /  1019.5hPa WNW 2.0mph /  3.2km/h 4.0mph /  6.4km/h 74% 0.00in /  0mm
03:44 23.1 °F /  -4.9 °C 16.0 °F /  -8.9 °C 30.11in /  1019.5hPa WNW 2.0mph /  3.2km/h 4.0mph /  6.4km/h 74% 0.00in /  0mm
03:49 22.7 °F /  -5.2 °C 15.7 °F /  -9.1 °C 30.12in /  1019.9hPa WNW 1.0mph /  1.6km/h 3.0mph /  4.8km/h 74% 0.00in /  0mm
03:54 22.5 °F /  -5.3 °C 15.8 °F /  -9 °C 30.12in /  1019.9hPa Calm   3.0mph /  4.8km/h 75% 0.00in /  0mm
03:59 22.5 °F /  -5.3 °C 15.8 °F /  -9 °C 30.11in /  1019.5hPa Calm   2.0mph /  3.2km/h 75% 0.00in /  0mm
04:04 22.2 °F /  -5.4 °C 15.5 °F /  -9.2 °C 30.11in /  1019.5hPa Calm   3.0mph /  4.8km/h 75% 0.00in /  0mm
04:09 21.8 °F /  -5.7 °C 15.1 °F /  -9.4 °C 30.11in /  1019.5hPa West 1.0mph /  1.6km/h 1.0mph /  1.6km/h 75% 0.00in /  0mm
04:14 21.2 °F /  -6 °C 14.8 °F /  -9.6 °C 30.11in /  1019.5hPa West 1.0mph /  1.6km/h 2.0mph /  3.2km/h 76% 0.00in /  0mm
04:19 20.7 °F /  -6.3 °C 14.9 °F /  -9.5 °C 30.11in /  1019.5hPa Calm   2.0mph /  3.2km/h 78% 0.00in /  0mm
04:24 20.3 °F /  -6.5 °C 14.5 °F /  -9.7 °C 30.12in /  1019.9hPa Calm     78% 0.00in /  0mm
04:29 20.3 °F /  -6.5 °C 14.8 °F /  -9.6 °C 30.11in /  1019.5hPa Calm     79% 0.00in /  0mm
04:34 20.4 °F /  -6.4 °C 14.9 °F /  -9.5 °C 30.11in /  1019.5hPa Calm     79% 0.00in /  0mm
04:39 20.8 °F /  -6.2 °C 15.3 °F /  -9.3 °C 30.10in /  1019.2hPa Calm     79% 0.00in /  0mm
04:44 21.0 °F /  -6.1 °C 15.2 °F /  -9.3 °C 30.10in /  1019.2hPa Calm     78% 0.00in /  0mm
04:49 20.9 °F /  -6.2 °C 15.1 °F /  -9.4 °C 30.11in /  1019.5hPa Calm     78% 0.00in /  0mm
04:54 20.9 °F /  -6.2 °C 15.4 °F /  -9.2 °C 30.11in /  1019.5hPa Calm     79% 0.00in /  0mm
04:59 20.9 °F /  -6.2 °C 15.4 °F /  -9.2 °C 30.11in /  1019.5hPa Calm     79% 0.00in /  0mm
05:04 20.9 °F /  -6.2 °C 15.4 °F /  -9.2 °C 30.10in /  1019.2hPa Calm     79% 0.00in /  0mm
05:09 20.7 °F /  -6.3 °C 15.2 °F /  -9.3 °C 30.12in /  1019.9hPa Calm     79% 0.00in /  0mm
05:14 20.4 °F /  -6.4 °C 15.2 °F /  -9.3 °C 30.11in /  1019.5hPa Calm     80% 0.00in /  0mm
05:19 20.2 °F /  -6.6 °C 15.0 °F /  -9.4 °C 30.11in /  1019.5hPa Calm     80% 0.00in /  0mm
05:24 20.1 °F /  -6.6 °C 15.2 °F /  -9.3 °C 30.11in /  1019.5hPa Calm     81% 0.00in /  0mm
05:29 19.9 °F /  -6.7 °C 15.0 °F /  -9.4 °C 30.11in /  1019.5hPa Calm     81% 0.00in /  0mm
05:34 19.9 °F /  -6.7 °C 15.3 °F /  -9.3 °C 30.12in /  1019.9hPa Calm     82% 0.00in /  0mm
05:39 20.1 °F /  -6.6 °C 15.5 °F /  -9.2 °C 30.12in /  1019.9hPa Calm     82% 0.00in /  0mm
05:44 20.2 °F /  -6.6 °C 15.6 °F /  -9.1 °C 30.13in /  1020.2hPa Calm     82% 0.00in /  0mm
05:49 20.3 °F /  -6.5 °C 15.7 °F /  -9.1 °C 30.13in /  1020.2hPa Calm     82% 0.00in /  0mm
05:54 20.7 °F /  -6.3 °C 16.1 °F /  -8.8 °C 30.12in /  1019.9hPa Calm     82% 0.00in /  0mm
05:59 21.4 °F /  -5.9 °C 16.5 °F /  -8.6 °C 30.11in /  1019.5hPa Calm   2.0mph /  3.2km/h 81% 0.00in /  0mm
06:04 21.6 °F /  -5.8 °C 16.4 °F /  -8.7 °C 30.12in /  1019.9hPa Calm   2.0mph /  3.2km/h 80% 0.00in /  0mm
06:09 21.5 °F /  -5.8 °C 16.3 °F /  -8.7 °C 30.13in /  1020.2hPa Calm   2.0mph /  3.2km/h 80% 0.00in /  0mm
06:14 21.6 °F /  -5.8 °C 16.4 °F /  -8.7 °C 30.13in /  1020.2hPa Calm   2.0mph /  3.2km/h 80% 0.00in /  0mm
06:19 21.7 °F /  -5.7 °C 16.5 °F /  -8.6 °C 30.12in /  1019.9hPa Calm   2.0mph /  3.2km/h 80% 0.00in /  0mm
06:24 21.7 °F /  -5.7 °C 16.2 °F /  -8.8 °C 30.12in /  1019.9hPa Calm     79% 0.00in /  0mm
06:29 21.5 °F /  -5.8 °C 16.0 °F /  -8.9 °C 30.12in /  1019.9hPa Calm     79% 0.00in /  0mm
06:34 21.6 °F /  -5.8 °C 16.1 °F /  -8.8 °C 30.13in /  1020.2hPa Calm     79% 0.00in /  0mm
06:39 21.7 °F /  -5.7 °C 16.2 °F /  -8.8 °C 30.14in /  1020.5hPa Calm     79% 0.00in /  0mm
06:44 22.1 °F /  -5.5 °C 16.6 °F /  -8.6 °C 30.14in /  1020.5hPa West 1.0mph /  1.6km/h 2.0mph /  3.2km/h 79% 0.00in /  0mm
06:49 22.3 °F /  -5.4 °C 17.1 °F /  -8.3 °C 30.15in /  1020.9hPa Calm   1.0mph /  1.6km/h 80% 0.00in /  0mm
06:54 23.0 °F /  -5 °C 17.5 °F /  -8.1 °C 30.15in /  1020.9hPa West 3.0mph /  4.8km/h 4.0mph /  6.4km/h 79% 0.00in /  0mm
06:59 23.6 °F /  -4.7 °C 17.1 °F /  -8.3 °C 30.15in /  1020.9hPa Calm   4.0mph /  6.4km/h 76% 0.00in /  0mm
07:04 24.0 °F /  -4.4 °C 17.2 °F /  -8.2 °C 30.14in /  1020.5hPa WNW 1.0mph /  1.6km/h 4.0mph /  6.4km/h 75% 0.00in /  0mm
07:09 24.4 °F /  -4.2 °C 17.3 °F /  -8.2 °C 30.15in /  1020.9hPa WNW 1.0mph /  1.6km/h 4.0mph /  6.4km/h 74% 0.00in /  0mm
07:14 24.6 °F /  -4.1 °C 17.5 °F /  -8.1 °C 30.15in /  1020.9hPa West 2.0mph /  3.2km/h 4.0mph /  6.4km/h 74% 0.00in /  0mm
07:19 24.7 °F /  -4.1 °C 17.6 °F /  -8 °C 30.15in /  1020.9hPa West 2.0mph /  3.2km/h 4.0mph /  6.4km/h 74% 0.00in /  0mm
07:24 24.8 °F /  -4 °C 17.4 °F /  -8.1 °C 30.15in /  1020.9hPa WNW 2.0mph /  3.2km/h 4.0mph /  6.4km/h 73% 0.00in /  0mm
07:29 25.0 °F /  -3.9 °C 17.6 °F /  -8 °C 30.15in /  1020.9hPa Calm   3.0mph /  4.8km/h 73% 0.00in /  0mm
07:34 25.1 °F /  -3.8 °C 17.7 °F /  -7.9 °C 30.15in /  1020.9hPa WNW 1.0mph /  1.6km/h 3.0mph /  4.8km/h 73% 0.00in /  0mm
07:39 25.1 °F /  -3.8 °C 17.7 °F /  -7.9 °C 30.14in /  1020.5hPa WNW 1.0mph /  1.6km/h 4.0mph /  6.4km/h 73% 0.00in /  0mm
07:44 25.2 °F /  -3.8 °C 17.8 °F /  -7.9 °C 30.14in /  1020.5hPa WNW 2.0mph /  3.2km/h 3.0mph /  4.8km/h 73% 0.00in /  0mm
07:49 25.3 °F /  -3.7 °C 18.2 °F /  -7.7 °C 30.15in /  1020.9hPa Calm   3.0mph /  4.8km/h 74% 0.00in /  0mm
07:54 25.3 °F /  -3.7 °C 17.9 °F /  -7.8 °C 30.14in /  1020.5hPa Calm   2.0mph /  3.2km/h 73% 0.00in /  0mm
07:59 25.5 °F /  -3.6 °C 18.0 °F /  -7.8 °C 30.14in /  1020.5hPa Calm   2.0mph /  3.2km/h 73% 0.00in /  0mm
08:04 25.5 °F /  -3.6 °C 18.0 °F /  -7.8 °C 30.14in /  1020.5hPa Calm   2.0mph /  3.2km/h 73% 0.00in /  0mm
08:09 25.7 °F /  -3.5 °C 18.2 °F /  -7.7 °C 30.14in /  1020.5hPa WNW 3.0mph /  4.8km/h 3.0mph /  4.8km/h 73% 0.00in /  0mm
08:14 25.8 °F /  -3.4 °C 18.3 °F /  -7.6 °C 30.14in /  1020.5hPa WNW 1.0mph /  1.6km/h 3.0mph /  4.8km/h 73% 0.00in /  0mm
08:19 25.9 °F /  -3.4 °C 18.4 °F /  -7.6 °C 30.15in /  1020.9hPa WNW 1.0mph /  1.6km/h 3.0mph /  4.8km/h 73% 0.00in /  0mm
08:24 26.0 °F /  -3.3 °C 18.2 °F /  -7.7 °C 30.15in /  1020.9hPa NW 1.0mph /  1.6km/h 3.0mph /  4.8km/h 72% 0.00in /  0mm
08:29 26.1 °F /  -3.3 °C 18.3 °F /  -7.6 °C 30.15in /  1020.9hPa NW 1.0mph /  1.6km/h 3.0mph /  4.8km/h 72% 0.00in /  0mm
08:34 26.4 °F /  -3.1 °C 18.9 °F /  -7.3 °C 30.15in /  1020.9hPa NW 1.0mph /  1.6km/h 3.0mph /  4.8km/h 73% 0.00in /  0mm
08:39 26.7 °F /  -2.9 °C 18.6 °F /  -7.4 °C 30.15in /  1020.9hPa WNW 2.0mph /  3.2km/h 3.0mph /  4.8km/h 71% 0.00in /  0mm
08:44 26.9 °F /  -2.8 °C 18.7 °F /  -7.4 °C 30.15in /  1020.9hPa West 2.0mph /  3.2km/h 4.0mph /  6.4km/h 71% 0.00in /  0mm
08:49 27.1 °F /  -2.7 °C 18.3 °F /  -7.6 °C 30.15in /  1020.9hPa WSW 3.0mph /  4.8km/h 5.0mph /  8km/h 69% 0.00in /  0mm
08:54 27.2 °F /  -2.7 °C 18.4 °F /  -7.6 °C 30.16in /  1021.2hPa WNW 3.0mph /  4.8km/h 4.0mph /  6.4km/h 69% 0.00in /  0mm
08:59 27.2 °F /  -2.7 °C 18.0 °F /  -7.8 °C 30.16in /  1021.2hPa WNW 5.0mph /  8km/h 5.0mph /  8km/h 68% 0.00in /  0mm
09:04 27.3 °F /  -2.6 °C 18.5 °F /  -7.5 °C 30.15in /  1020.9hPa WNW 2.0mph /  3.2km/h 5.0mph /  8km/h 69% 0.00in /  0mm
09:09 27.6 °F /  -2.4 °C 18.1 °F /  -7.7 °C 30.15in /  1020.9hPa West 2.0mph /  3.2km/h 3.0mph /  4.8km/h 67% 0.00in /  0mm
09:14 27.8 °F /  -2.3 °C 18.3 °F /  -7.6 °C 30.15in /  1020.9hPa WNW 1.0mph /  1.6km/h 3.0mph /  4.8km/h 67% 0.00in /  0mm
09:19 27.9 °F /  -2.3 °C 18.0 °F /  -7.8 °C 30.15in /  1020.9hPa West 2.0mph /  3.2km/h 4.0mph /  6.4km/h 66% 0.00in /  0mm
09:24 27.9 °F /  -2.3 °C 17.6 °F /  -8 °C 30.15in /  1020.9hPa WSW 2.0mph /  3.2km/h 5.0mph /  8km/h 65% 0.00in /  0mm
09:29 28.1 °F /  -2.2 °C 17.8 °F /  -7.9 °C 30.15in /  1020.9hPa West 2.0mph /  3.2km/h 5.0mph /  8km/h 65% 0.00in /  0mm
09:34 28.3 °F /  -2.1 °C 18.4 °F /  -7.6 °C 30.15in /  1020.9hPa WSW 2.0mph /  3.2km/h 5.0mph /  8km/h 66% 0.00in /  0mm
09:39 28.5 °F /  -1.9 °C 18.2 °F /  -7.7 °C 30.15in /  1020.9hPa WSW 2.0mph /  3.2km/h 5.0mph /  8km/h 65% 0.00in /  0mm
09:44 28.7 °F /  -1.8 °C 18.4 °F /  -7.6 °C 30.15in /  1020.9hPa WSW 4.0mph /  6.4km/h 8.0mph /  12.9km/h 65% 0.00in /  0mm
09:49 28.7 °F /  -1.8 °C 18.4 °F /  -7.6 °C 30.15in /  1020.9hPa West 3.0mph /  4.8km/h 6.0mph /  9.7km/h 65% 0.00in /  0mm
09:54 28.8 °F /  -1.8 °C 18.9 °F /  -7.3 °C 30.15in /  1020.9hPa WSW 3.0mph /  4.8km/h 6.0mph /  9.7km/h 66% 0.00in /  0mm
09:59 28.7 °F /  -1.8 °C 18.8 °F /  -7.3 °C 30.14in /  1020.5hPa WSW 3.0mph /  4.8km/h 5.0mph /  8km/h 66% 0.00in /  0mm
10:04 29.1 °F /  -1.6 °C 19.2 °F /  -7.1 °C 30.15in /  1020.9hPa SW 4.0mph /  6.4km/h 6.0mph /  9.7km/h 66% 0.00in /  0mm
10:09 29.2 °F /  -1.6 °C 19.2 °F /  -7.1 °C 30.15in /  1020.9hPa WSW 5.0mph /  8km/h 8.0mph /  12.9km/h 66% 0.00in /  0mm
10:14 29.0 °F /  -1.7 °C 19.4 °F /  -7 °C 30.14in /  1020.5hPa West 2.0mph /  3.2km/h 7.0mph /  11.3km/h 67% 0.00in /  0mm
10:19 29.4 °F /  -1.4 °C 20.1 °F /  -6.6 °C 30.14in /  1020.5hPa West 3.0mph /  4.8km/h 4.0mph /  6.4km/h 68% 0.00in /  0mm
10:24 29.5 °F /  -1.4 °C 19.9 °F /  -6.7 °C 30.14in /  1020.5hPa West 4.0mph /  6.4km/h 8.0mph /  12.9km/h 67% 0.00in /  0mm
10:29 29.8 °F /  -1.2 °C 20.5 °F /  -6.4 °C 30.14in /  1020.5hPa WSW 3.0mph /  4.8km/h 8.0mph /  12.9km/h 68% 0.00in /  0mm
10:34 30.0 °F /  -1.1 °C 20.4 °F /  -6.4 °C 30.14in /  1020.5hPa WSW 3.0mph /  4.8km/h 7.0mph /  11.3km/h 67% 0.00in /  0mm
10:39 29.9 °F /  -1.2 °C 20.6 °F /  -6.3 °C 30.14in /  1020.5hPa SW 4.0mph /  6.4km/h 9.0mph /  14.5km/h 68% 0.00in /  0mm
10:44 29.9 °F /  -1.2 °C 20.6 °F /  -6.3 °C 30.14in /  1020.5hPa SW 5.0mph /  8km/h 9.0mph /  14.5km/h 68% 0.00in /  0mm
10:49 30.1 °F /  -1.1 °C 21.2 °F /  -6 °C 30.14in /  1020.5hPa SW 7.0mph /  11.3km/h 9.0mph /  14.5km/h 69% 0.00in /  0mm
10:54 30.4 °F /  -0.9 °C 21.4 °F /  -5.9 °C 30.14in /  1020.5hPa West 9.0mph /  14.5km/h 11.0mph /  17.7km/h 69% 0.00in /  0mm
10:59 30.3 °F /  -0.9 °C 21.3 °F /  -5.9 °C 30.14in /  1020.5hPa WSW 6.0mph /  9.7km/h 12.0mph /  19.3km/h 69% 0.00in /  0mm
11:04 30.1 °F /  -1.1 °C 21.2 °F /  -6 °C 30.14in /  1020.5hPa SW 6.0mph /  9.7km/h 13.0mph /  20.9km/h 69% 0.00in /  0mm
11:09 30.0 °F /  -1.1 °C 21.4 °F /  -5.9 °C 30.13in /  1020.2hPa SSW 3.0mph /  4.8km/h 11.0mph /  17.7km/h 70% 0.00in /  0mm
11:14 30.1 °F /  -1.1 °C 21.8 °F /  -5.7 °C 30.13in /  1020.2hPa West 8.0mph /  12.9km/h 9.0mph /  14.5km/h 71% 0.01in /  0.25mm
11:19 30.1 °F /  -1.1 °C 21.8 °F /  -5.7 °C 30.13in /  1020.2hPa SSW 4.0mph /  6.4km/h 9.0mph /  14.5km/h 71% 0.01in /  0.25mm
11:24 30.2 °F /  -1 °C 21.6 °F /  -5.8 °C 30.13in /  1020.2hPa WSW 4.0mph /  6.4km/h 9.0mph /  14.5km/h 70% 0.01in /  0.25mm
11:29 30.4 °F /  -0.9 °C 21.8 °F /  -5.7 °C 30.13in /  1020.2hPa WSW 5.0mph /  8km/h 12.0mph /  19.3km/h 70% 0.01in /  0.25mm
11:34 30.4 °F /  -0.9 °C 21.4 °F /  -5.9 °C 30.13in /  1020.2hPa WSW 7.0mph /  11.3km/h 12.0mph /  19.3km/h 69% 0.01in /  0.25mm
11:39 30.5 °F /  -0.8 °C 21.9 °F /  -5.6 °C 30.12in /  1019.9hPa SSW 6.0mph /  9.7km/h 12.0mph /  19.3km/h 70% 0.01in /  0.25mm
11:44 30.9 °F /  -0.6 °C 22.6 °F /  -5.2 °C 30.12in /  1019.9hPa SSW 5.0mph /  8km/h 11.0mph /  17.7km/h 71% 0.01in /  0.25mm
11:49 31.1 °F /  -0.5 °C 22.5 °F /  -5.3 °C 30.12in /  1019.9hPa SW 5.0mph /  8km/h 10.0mph /  16.1km/h 70% 0.01in /  0.25mm
11:54 31.1 °F /  -0.5 °C 22.5 °F /  -5.3 °C 30.12in /  1019.9hPa SW 5.0mph /  8km/h 9.0mph /  14.5km/h 70% 0.01in /  0.25mm
11:59 31.1 °F /  -0.5 °C 22.5 °F /  -5.3 °C 30.12in /  1019.9hPa SW 5.0mph /  8km/h 10.0mph /  16.1km/h 70% 0.01in /  0.25mm
12:04 31.0 °F /  -0.6 °C 22.4 °F /  -5.3 °C 30.12in /  1019.9hPa SW 6.0mph /  9.7km/h 10.0mph /  16.1km/h 70% 0.01in /  0.25mm
12:09 31.1 °F /  -0.5 °C 22.5 °F /  -5.3 °C 30.11in /  1019.5hPa WSW 4.0mph /  6.4km/h 13.0mph /  20.9km/h 70% 0.01in /  0.25mm
12:14 31.2 °F /  -0.4 °C 22.2 °F /  -5.4 °C 30.11in /  1019.5hPa SW 8.0mph /  12.9km/h 9.0mph /  14.5km/h 69% 0.01in /  0.25mm
12:19 31.3 °F /  -0.4 °C 22.3 °F /  -5.4 °C 30.11in /  1019.5hPa SW 5.0mph /  8km/h 10.0mph /  16.1km/h 69% 0.01in /  0.25mm
12:24 31.3 °F /  -0.4 °C 22.3 °F /  -5.4 °C 30.10in /  1019.2hPa SW 10.0mph /  16.1km/h 15.0mph /  24.1km/h 69% 0.01in /  0.25mm
12:29 31.3 °F /  -0.4 °C 22.3 °F /  -5.4 °C 30.10in /  1019.2hPa SSW 6.0mph /  9.7km/h 12.0mph /  19.3km/h 69% 0.01in /  0.25mm
12:34 31.4 °F /  -0.3 °C 22.4 °F /  -5.3 °C 30.10in /  1019.2hPa SSW 6.0mph /  9.7km/h 13.0mph /  20.9km/h 69% 0.01in /  0.25mm
12:39 31.8 °F /  -0.1 °C 22.4 °F /  -5.3 °C 30.09in /  1018.8hPa SW 9.0mph /  14.5km/h 12.0mph /  19.3km/h 68% 0.01in /  0.25mm
12:44 32.1 °F /  0.1 °C 22.7 °F /  -5.2 °C 30.09in /  1018.8hPa SW 6.0mph /  9.7km/h 12.0mph /  19.3km/h 68% 0.01in /  0.25mm
12:49 32.1 °F /  0.1 °C 22.4 °F /  -5.3 °C 30.08in /  1018.5hPa SW 6.0mph /  9.7km/h 14.0mph /  22.5km/h 67% 0.01in /  0.25mm
12:54 32.3 °F /  0.2 °C 22.6 °F /  -5.2 °C 30.08in /  1018.5hPa WSW 6.0mph /  9.7km/h 14.0mph /  22.5km/h 67% 0.01in /  0.25mm
12:59 32.4 °F /  0.2 °C 22.3 °F /  -5.4 °C 30.07in /  1018.2hPa SW 6.0mph /  9.7km/h 11.0mph /  17.7km/h 66% 0.01in /  0.25mm
13:04 32.3 °F /  0.2 °C 21.8 °F /  -5.7 °C 30.07in /  1018.2hPa SW 7.0mph /  11.3km/h 11.0mph /  17.7km/h 65% 0.01in /  0.25mm
13:09 32.7 °F /  0.4 °C 22.6 °F /  -5.2 °C 30.07in /  1018.2hPa WSW 5.0mph /  8km/h 9.0mph /  14.5km/h 66% 0.01in /  0.25mm
13:14 32.8 °F /  0.4 °C 22.3 °F /  -5.4 °C 30.07in /  1018.2hPa SSW 7.0mph /  11.3km/h 9.0mph /  14.5km/h 65% 0.00in /  0mm
13:19 32.8 °F /  0.4 °C 22.7 °F /  -5.2 °C 30.07in /  1018.2hPa SW 2.0mph /  3.2km/h 9.0mph /  14.5km/h 66% 0.00in /  0mm
13:24 33.0 °F /  0.6 °C 22.5 °F /  -5.3 °C 30.06in /  1017.8hPa West 5.0mph /  8km/h 9.0mph /  14.5km/h 65% 0.00in /  0mm
13:29 33.2 °F /  0.7 °C 22.3 °F /  -5.4 °C 30.06in /  1017.8hPa SW 11.0mph /  17.7km/h 12.0mph /  19.3km/h 64% 0.00in /  0mm
13:34 33.2 °F /  0.7 °C 22.7 °F /  -5.2 °C 30.06in /  1017.8hPa WSW 2.0mph /  3.2km/h 11.0mph /  17.7km/h 65% 0.00in /  0mm
13:39 33.3 °F /  0.7 °C 22.4 °F /  -5.3 °C 30.06in /  1017.8hPa WSW 5.0mph /  8km/h 12.0mph /  19.3km/h 64% 0.00in /  0mm
13:44 33.3 °F /  0.7 °C 22.4 °F /  -5.3 °C 30.06in /  1017.8hPa WSW 4.0mph /  6.4km/h 11.0mph /  17.7km/h 64% 0.01in /  0.25mm
13:49 33.3 °F /  0.7 °C 22.8 °F /  -5.1 °C 30.05in /  1017.5hPa SW 6.0mph /  9.7km/h 13.0mph /  20.9km/h 65% 0.01in /  0.25mm
13:54 33.7 °F /  0.9 °C 23.2 °F /  -4.9 °C 30.06in /  1017.8hPa WSW 5.0mph /  8km/h 13.0mph /  20.9km/h 65% 0.01in /  0.25mm
13:59 34.0 °F /  1.1 °C 23.1 °F /  -4.9 °C 30.05in /  1017.5hPa WSW 5.0mph /  8km/h 10.0mph /  16.1km/h 64% 0.01in /  0.25mm
14:04 34.1 °F /  1.2 °C 23.6 °F /  -4.7 °C 30.05in /  1017.5hPa WSW 5.0mph /  8km/h 10.0mph /  16.1km/h 65% 0.01in /  0.25mm
14:09 34.3 °F /  1.3 °C 23.4 °F /  -4.8 °C 30.04in /  1017.2hPa WSW 6.0mph /  9.7km/h 10.0mph /  16.1km/h 64% 0.01in /  0.25mm
14:14 34.6 °F /  1.4 °C 24.0 °F /  -4.4 °C 30.04in /  1017.2hPa West 3.0mph /  4.8km/h 9.0mph /  14.5km/h 65% 0.01in /  0.25mm
14:19 34.7 °F /  1.5 °C 23.8 °F /  -4.6 °C 30.04in /  1017.2hPa WSW 5.0mph /  8km/h 9.0mph /  14.5km/h 64% 0.01in /  0.25mm
14:24 35.2 °F /  1.8 °C 24.6 °F /  -4.1 °C 30.04in /  1017.2hPa WSW 4.0mph /  6.4km/h 9.0mph /  14.5km/h 65% 0.01in /  0.25mm
14:29 35.1 °F /  1.7 °C 24.1 °F /  -4.4 °C 30.04in /  1017.2hPa WSW 11.0mph /  17.7km/h 13.0mph /  20.9km/h 64% 0.01in /  0.25mm
14:34 35.5 °F /  1.9 °C 24.9 °F /  -3.9 °C 30.04in /  1017.2hPa SW 5.0mph /  8km/h 11.0mph /  17.7km/h 65% 0.01in /  0.25mm
14:39 35.2 °F /  1.8 °C 24.2 °F /  -4.3 °C 30.04in /  1017.2hPa West 4.0mph /  6.4km/h 11.0mph /  17.7km/h 64% 0.01in /  0.25mm
14:44 35.8 °F /  2.1 °C 25.2 °F /  -3.8 °C 30.04in /  1017.2hPa SW 6.0mph /  9.7km/h 9.0mph /  14.5km/h 65% 0.00in /  0mm
14:49 35.8 °F /  2.1 °C 24.8 °F /  -4 °C 30.04in /  1017.2hPa West 7.0mph /  11.3km/h 11.0mph /  17.7km/h 64% 0.00in /  0mm
14:54 36.2 °F /  2.3 °C 25.2 °F /  -3.8 °C 30.04in /  1017.2hPa WSW 5.0mph /  8km/h 11.0mph /  17.7km/h 64% 0.00in /  0mm
14:59 35.7 °F /  2.1 °C 24.7 °F /  -4.1 °C 30.04in /  1017.2hPa WSW 5.0mph /  8km/h 9.0mph /  14.5km/h 64% 0.00in /  0mm
15:04 35.6 °F /  2 °C 24.6 °F /  -4.1 °C 30.04in /  1017.2hPa WSW 5.0mph /  8km/h 11.0mph /  17.7km/h 64% 0.00in /  0mm
15:09 35.5 °F /  1.9 °C 24.5 °F /  -4.2 °C 30.04in /  1017.2hPa WSW 5.0mph /  8km/h 11.0mph /  17.7km/h 64% 0.00in /  0mm
15:14 35.6 °F /  2 °C 24.6 °F /  -4.1 °C 30.04in /  1017.2hPa WSW 5.0mph /  8km/h 10.0mph /  16.1km/h 64% 0.00in /  0mm
15:19 36.1 °F /  2.3 °C 24.7 °F /  -4.1 °C 30.04in /  1017.2hPa WSW 3.0mph /  4.8km/h 8.0mph /  12.9km/h 63% 0.00in /  0mm
15:24 36.3 °F /  2.4 °C 24.9 °F /  -3.9 °C 30.04in /  1017.2hPa WSW 6.0mph /  9.7km/h 8.0mph /  12.9km/h 63% 0.00in /  0mm
15:29 36.2 °F /  2.3 °C 25.2 °F /  -3.8 °C 30.04in /  1017.2hPa West 7.0mph /  11.3km/h 8.0mph /  12.9km/h 64% 0.00in /  0mm
15:34 36.1 °F /  2.3 °C 25.1 °F /  -3.8 °C 30.04in /  1017.2hPa WNW 3.0mph /  4.8km/h 9.0mph /  14.5km/h 64% 0.00in /  0mm
15:39 36.2 °F /  2.3 °C 25.2 °F /  -3.8 °C 30.04in /  1017.2hPa West 6.0mph /  9.7km/h 9.0mph /  14.5km/h 64% 0.00in /  0mm
15:44 36.3 °F /  2.4 °C 25.7 °F /  -3.5 °C 30.04in /  1017.2hPa West 1.0mph /  1.6km/h 9.0mph /  14.5km/h 65% 0.00in /  0mm
15:49 36.3 °F /  2.4 °C 25.7 °F /  -3.5 °C 30.04in /  1017.2hPa West 3.0mph /  4.8km/h 11.0mph /  17.7km/h 65% 0.00in /  0mm
15:54 36.1 °F /  2.3 °C 25.1 °F /  -3.8 °C 30.04in /  1017.2hPa West 7.0mph /  11.3km/h 10.0mph /  16.1km/h 64% 0.00in /  0mm
15:59 35.8 °F /  2.1 °C 25.2 °F /  -3.8 °C 30.04in /  1017.2hPa WSW 6.0mph /  9.7km/h 12.0mph /  19.3km/h 65% 0.00in /  0mm
16:04 36.1 °F /  2.3 °C 25.5 °F /  -3.6 °C 30.04in /  1017.2hPa WSW 5.0mph /  8km/h 12.0mph /  19.3km/h 65% 0.00in /  0mm
16:09 36.0 °F /  2.2 °C 25.7 °F /  -3.5 °C 30.04in /  1017.2hPa WSW 4.0mph /  6.4km/h 9.0mph /  14.5km/h 66% 0.00in /  0mm
16:14 35.8 °F /  2.1 °C 25.5 °F /  -3.6 °C 30.03in /  1016.8hPa WSW 4.0mph /  6.4km/h 9.0mph /  14.5km/h 66% 0.00in /  0mm
16:19 35.4 °F /  1.9 °C 25.5 °F /  -3.6 °C 30.03in /  1016.8hPa SW 5.0mph /  8km/h 10.0mph /  16.1km/h 67% 0.00in /  0mm
16:24 35.4 °F /  1.9 °C 25.5 °F /  -3.6 °C 30.03in /  1016.8hPa SW 4.0mph /  6.4km/h 10.0mph /  16.1km/h 67% 0.00in /  0mm
16:29 35.5 °F /  1.9 °C 26.0 °F /  -3.3 °C 30.03in /  1016.8hPa SW 3.0mph /  4.8km/h 8.0mph /  12.9km/h 68% 0.00in /  0mm
16:34 35.6 °F /  2 °C 26.1 °F /  -3.3 °C 30.03in /  1016.8hPa SW 2.0mph /  3.2km/h 5.0mph /  8km/h 68% 0.00in /  0mm
16:39 35.4 °F /  1.9 °C 25.5 °F /  -3.6 °C 30.03in /  1016.8hPa West 2.0mph /  3.2km/h 5.0mph /  8km/h 67% 0.00in /  0mm
16:44 35.2 °F /  1.8 °C 26.0 °F /  -3.3 °C 30.04in /  1017.2hPa West 2.0mph /  3.2km/h 4.0mph /  6.4km/h 69% 0.00in /  0mm
16:49 35.1 °F /  1.7 °C 25.9 °F /  -3.4 °C 30.04in /  1017.2hPa WNW 2.0mph /  3.2km/h 3.0mph /  4.8km/h 69% 0.00in /  0mm
16:54 35.0 °F /  1.7 °C 25.5 °F /  -3.6 °C 30.04in /  1017.2hPa West 4.0mph /  6.4km/h 6.0mph /  9.7km/h 68% 0.00in /  0mm
16:59 34.9 °F /  1.6 °C 25.8 °F /  -3.4 °C 30.04in /  1017.2hPa West 1.0mph /  1.6km/h 7.0mph /  11.3km/h 69% 0.00in /  0mm
17:04 35.0 °F /  1.7 °C 25.9 °F /  -3.4 °C 30.03in /  1016.8hPa West 3.0mph /  4.8km/h 7.0mph /  11.3km/h 69% 0.00in /  0mm
17:09 34.9 °F /  1.6 °C 25.8 °F /  -3.4 °C 30.03in /  1016.8hPa West 2.0mph /  3.2km/h 4.0mph /  6.4km/h 69% 0.00in /  0mm
17:14 34.8 °F /  1.6 °C 25.7 °F /  -3.5 °C 30.03in /  1016.8hPa West 2.0mph /  3.2km/h 4.0mph /  6.4km/h 69% 0.00in /  0mm
17:19 34.9 °F /  1.6 °C 25.8 °F /  -3.4 °C 30.03in /  1016.8hPa West 2.0mph /  3.2km/h 4.0mph /  6.4km/h 69% 0.00in /  0mm
17:24 34.7 °F /  1.5 °C 25.9 °F /  -3.4 °C 30.03in /  1016.8hPa WSW 1.0mph /  1.6km/h 4.0mph /  6.4km/h 70% 0.00in /  0mm
17:29 34.5 °F /  1.4 °C 26.1 °F /  -3.3 °C 30.03in /  1016.8hPa WSW 1.0mph /  1.6km/h 3.0mph /  4.8km/h 71% 0.00in /  0mm
17:34 34.2 °F /  1.2 °C 26.1 °F /  -3.3 °C 30.03in /  1016.8hPa WSW 2.0mph /  3.2km/h 3.0mph /  4.8km/h 72% 0.00in /  0mm
17:39 33.9 °F /  1.1 °C 26.2 °F /  -3.2 °C 30.02in /  1016.5hPa South 3.0mph /  4.8km/h 4.0mph /  6.4km/h 73% 0.00in /  0mm
17:44 33.6 °F /  0.9 °C 25.9 °F /  -3.4 °C 30.03in /  1016.8hPa South 3.0mph /  4.8km/h 4.0mph /  6.4km/h 73% 0.00in /  0mm
17:49 33.5 °F /  0.8 °C 25.8 °F /  -3.4 °C 30.03in /  1016.8hPa South 1.0mph /  1.6km/h 3.0mph /  4.8km/h 73% 0.00in /  0mm
17:54 33.2 °F /  0.7 °C 25.8 °F /  -3.4 °C 30.03in /  1016.8hPa South 2.0mph /  3.2km/h 3.0mph /  4.8km/h 74% 0.00in /  0mm
17:59 33.0 °F /  0.6 °C 25.6 °F /  -3.6 °C 30.03in /  1016.8hPa South 2.0mph /  3.2km/h 4.0mph /  6.4km/h 74% 0.00in /  0mm
18:04 32.7 °F /  0.4 °C 25.3 °F /  -3.7 °C 30.02in /  1016.5hPa South 1.0mph /  1.6km/h 3.0mph /  4.8km/h 74% 0.00in /  0mm
18:09 32.4 °F /  0.2 °C 25.4 °F /  -3.7 °C 30.02in /  1016.5hPa South 2.0mph /  3.2km/h 3.0mph /  4.8km/h 75% 0.00in /  0mm
18:14 32.3 °F /  0.2 °C 25.3 °F /  -3.7 °C 30.02in /  1016.5hPa South 2.0mph /  3.2km/h 3.0mph /  4.8km/h 75% 0.00in /  0mm
18:19 32.1 °F /  0.1 °C 25.1 °F /  -3.8 °C 30.01in /  1016.1hPa South 1.0mph /  1.6km/h 3.0mph /  4.8km/h 75% 0.00in /  0mm
18:24 31.9 °F /  -0.1 °C 24.9 °F /  -3.9 °C 30.01in /  1016.1hPa South 1.0mph /  1.6km/h 3.0mph /  4.8km/h 75% 0.00in /  0mm
18:29 31.8 °F /  -0.1 °C 25.1 °F /  -3.8 °C 30.01in /  1016.1hPa South 1.0mph /  1.6km/h 2.0mph /  3.2km/h 76% 0.00in /  0mm
18:34 31.6 °F /  -0.2 °C 24.9 °F /  -3.9 °C 30.01in /  1016.1hPa South 1.0mph /  1.6km/h 2.0mph /  3.2km/h 76% 0.00in /  0mm
18:39 31.5 °F /  -0.3 °C 24.8 °F /  -4 °C 30.01in /  1016.1hPa Calm   2.0mph /  3.2km/h 76% 0.00in /  0mm
18:44 31.4 °F /  -0.3 °C 24.7 °F /  -4.1 °C 30.01in /  1016.1hPa South 1.0mph /  1.6km/h 2.0mph /  3.2km/h 76% 0.00in /  0mm
18:49 31.2 °F /  -0.4 °C 24.5 °F /  -4.2 °C 30.01in /  1016.1hPa Calm   2.0mph /  3.2km/h 76% 0.00in /  0mm
18:54 31.2 °F /  -0.4 °C 24.8 °F /  -4 °C 30.00in /  1015.8hPa Calm     77% 0.00in /  0mm
18:59 31.1 °F /  -0.5 °C 24.7 °F /  -4.1 °C 30.00in /  1015.8hPa Calm     77% 0.00in /  0mm
19:04 31.0 °F /  -0.6 °C 24.6 °F /  -4.1 °C 30.00in /  1015.8hPa Calm     77% 0.00in /  0mm
19:09 30.8 °F /  -0.7 °C 24.7 °F /  -4.1 °C 30.00in /  1015.8hPa Calm     78% 0.00in /  0mm
19:14 30.8 °F /  -0.7 °C 24.7 °F /  -4.1 °C 29.99in /  1015.5hPa Calm     78% 0.00in /  0mm
19:19 30.9 °F /  -0.6 °C 24.8 °F /  -4 °C 30.00in /  1015.8hPa Calm     78% 0.00in /  0mm
19:24 30.9 °F /  -0.6 °C 24.8 °F /  -4 °C 30.00in /  1015.8hPa Calm     78% 0.00in /  0mm
19:29 31.0 °F /  -0.6 °C 24.6 °F /  -4.1 °C 30.00in /  1015.8hPa Calm     77% 0.00in /  0mm
19:34 31.1 °F /  -0.5 °C 24.7 °F /  -4.1 °C 29.99in /  1015.5hPa Calm     77% 0.00in /  0mm
19:39 31.1 °F /  -0.5 °C 24.7 °F /  -4.1 °C 29.99in /  1015.5hPa Calm     77% 0.00in /  0mm
19:44 31.1 °F /  -0.5 °C 24.7 °F /  -4.1 °C 29.99in /  1015.5hPa Calm     77% 0.00in /  0mm
19:49 31.1 °F /  -0.5 °C 24.7 °F /  -4.1 °C 29.99in /  1015.5hPa Calm   2.0mph /  3.2km/h 77% 0.00in /  0mm
19:54 31.3 °F /  -0.4 °C 24.9 °F /  -3.9 °C 29.99in /  1015.5hPa Calm   2.0mph /  3.2km/h 77% 0.00in /  0mm
19:59 31.4 °F /  -0.3 °C 25.0 °F /  -3.9 °C 29.98in /  1015.1hPa South 1.0mph /  1.6km/h 2.0mph /  3.2km/h 77% 0.00in /  0mm
20:04 31.4 °F /  -0.3 °C 25.0 °F /  -3.9 °C 29.98in /  1015.1hPa Calm   2.0mph /  3.2km/h 77% 0.00in /  0mm
20:09 31.4 °F /  -0.3 °C 24.7 °F /  -4.1 °C 29.98in /  1015.1hPa Calm     76% 0.00in /  0mm
20:14 31.5 °F /  -0.3 °C 24.8 °F /  -4 °C 29.98in /  1015.1hPa South 1.0mph /  1.6km/h 2.0mph /  3.2km/h 76% 0.00in /  0mm
20:19 31.5 °F /  -0.3 °C 24.8 °F /  -4 °C 29.98in /  1015.1hPa South 1.0mph /  1.6km/h 2.0mph /  3.2km/h 76% 0.00in /  0mm
20:24 31.6 °F /  -0.2 °C 24.9 °F /  -3.9 °C 29.98in /  1015.1hPa South 1.0mph /  1.6km/h 3.0mph /  4.8km/h 76% 0.00in /  0mm
20:29 31.7 °F /  -0.2 °C 24.7 °F /  -4.1 °C 29.97in /  1014.8hPa South 1.0mph /  1.6km/h 3.0mph /  4.8km/h 75% 0.00in /  0mm
20:34 31.6 °F /  -0.2 °C 24.9 °F /  -3.9 °C 29.97in /  1014.8hPa Calm     76% 0.00in /  0mm
20:39 31.6 °F /  -0.2 °C 24.9 °F /  -3.9 °C 29.97in /  1014.8hPa Calm     76% 0.00in /  0mm
20:44 31.6 °F /  -0.2 °C 24.6 °F /  -4.1 °C 29.97in /  1014.8hPa Calm     75% 0.00in /  0mm
20:49 31.6 °F /  -0.2 °C 24.6 °F /  -4.1 °C 29.97in /  1014.8hPa Calm     75% 0.00in /  0mm
20:54 31.6 °F /  -0.2 °C 24.6 °F /  -4.1 °C 29.97in /  1014.8hPa Calm     75% 0.00in /  0mm
20:59 31.6 °F /  -0.2 °C 24.6 °F /  -4.1 °C 29.96in /  1014.4hPa Calm     75% 0.00in /  0mm
21:04 31.6 °F /  -0.2 °C 24.6 °F /  -4.1 °C 29.96in /  1014.4hPa Calm     75% 0.00in /  0mm
21:09 31.6 °F /  -0.2 °C 24.6 °F /  -4.1 °C 29.96in /  1014.4hPa Calm     75% 0.00in /  0mm
21:14 31.6 °F /  -0.2 °C 24.6 °F /  -4.1 °C 29.96in /  1014.4hPa NE 2.0mph /  3.2km/h 3.0mph /  4.8km/h 75% 0.00in /  0mm
21:19 31.6 °F /  -0.2 °C 24.6 °F /  -4.1 °C 29.96in /  1014.4hPa NE 3.0mph /  4.8km/h 4.0mph /  6.4km/h 75% 0.00in /  0mm
21:24 31.6 °F /  -0.2 °C 24.3 °F /  -4.3 °C 29.96in /  1014.4hPa NE 2.0mph /  3.2km/h 4.0mph /  6.4km/h 74% 0.00in /  0mm
21:29 31.6 °F /  -0.2 °C 24.3 °F /  -4.3 °C 29.96in /  1014.4hPa NE 2.0mph /  3.2km/h 4.0mph /  6.4km/h 74% 0.00in /  0mm
21:34 31.6 °F /  -0.2 °C 24.3 °F /  -4.3 °C 29.97in /  1014.8hPa NE 2.0mph /  3.2km/h 5.0mph /  8km/h 74% 0.00in /  0mm
21:39 31.6 °F /  -0.2 °C 24.3 °F /  -4.3 °C 29.97in /  1014.8hPa ENE 1.0mph /  1.6km/h 5.0mph /  8km/h 74% 0.00in /  0mm
21:44 31.7 °F /  -0.2 °C 24.4 °F /  -4.2 °C 29.96in /  1014.4hPa ENE 2.0mph /  3.2km/h 5.0mph /  8km/h 74% 0.00in /  0mm
21:49 31.8 °F /  -0.1 °C 24.5 °F /  -4.2 °C 29.97in /  1014.8hPa ENE 2.0mph /  3.2km/h 5.0mph /  8km/h 74% 0.00in /  0mm
21:54 31.8 °F /  -0.1 °C 24.5 °F /  -4.2 °C 29.96in /  1014.4hPa ENE 3.0mph /  4.8km/h 7.0mph /  11.3km/h 74% 0.00in /  0mm
21:59 31.8 °F /  -0.1 °C 24.1 °F /  -4.4 °C 29.96in /  1014.4hPa NE 3.0mph /  4.8km/h 5.0mph /  8km/h 73% 0.00in /  0mm
22:04 31.8 °F /  -0.1 °C 24.5 °F /  -4.2 °C 29.96in /  1014.4hPa NE 1.0mph /  1.6km/h 3.0mph /  4.8km/h 74% 0.00in /  0mm
22:09 31.9 °F /  -0.1 °C 24.2 °F /  -4.3 °C 29.96in /  1014.4hPa ENE 2.0mph /  3.2km/h 4.0mph /  6.4km/h 73% 0.00in /  0mm
22:14 31.9 °F /  -0.1 °C 24.2 °F /  -4.3 °C 29.96in /  1014.4hPa NE 3.0mph /  4.8km/h 5.0mph /  8km/h 73% 0.00in /  0mm
22:19 31.8 °F /  -0.1 °C 24.1 °F /  -4.4 °C 29.96in /  1014.4hPa NE 3.0mph /  4.8km/h 5.0mph /  8km/h 73% 0.00in /  0mm
22:24 31.6 °F /  -0.2 °C 23.9 °F /  -4.5 °C 29.95in /  1014.1hPa NE 2.0mph /  3.2km/h 5.0mph /  8km/h 73% 0.00in /  0mm
22:29 31.4 °F /  -0.3 °C 23.7 °F /  -4.6 °C 29.96in /  1014.4hPa NE 2.0mph /  3.2km/h 4.0mph /  6.4km/h 73% 0.00in /  0mm
22:34 31.3 °F /  -0.4 °C 24.0 °F /  -4.4 °C 29.95in /  1014.1hPa NE 2.0mph /  3.2km/h 5.0mph /  8km/h 74% 0.00in /  0mm
22:39 31.2 °F /  -0.4 °C 23.9 °F /  -4.5 °C 29.95in /  1014.1hPa NE 2.0mph /  3.2km/h 5.0mph /  8km/h 74% 0.00in /  0mm
22:44 31.0 °F /  -0.6 °C 23.7 °F /  -4.6 °C 29.95in /  1014.1hPa NE 3.0mph /  4.8km/h 5.0mph /  8km/h 74% 0.00in /  0mm
22:49 30.9 °F /  -0.6 °C 23.6 °F /  -4.7 °C 29.95in /  1014.1hPa NE 3.0mph /  4.8km/h 7.0mph /  11.3km/h 74% 0.00in /  0mm
22:54 31.0 °F /  -0.6 °C 23.7 °F /  -4.6 °C 29.95in /  1014.1hPa NE 3.0mph /  4.8km/h 7.0mph /  11.3km/h 74% 0.00in /  0mm
22:59 31.0 °F /  -0.6 °C 24.0 °F /  -4.4 °C 29.94in /  1013.8hPa NE 3.0mph /  4.8km/h 5.0mph /  8km/h 75% 0.00in /  0mm
23:04 31.0 °F /  -0.6 °C 23.7 °F /  -4.6 °C 29.94in /  1013.8hPa NE 3.0mph /  4.8km/h 6.0mph /  9.7km/h 74% 0.00in /  0mm
23:09 30.9 °F /  -0.6 °C 23.6 °F /  -4.7 °C 29.93in /  1013.4hPa NE 4.0mph /  6.4km/h 7.0mph /  11.3km/h 74% 0.00in /  0mm
23:14 30.9 °F /  -0.6 °C 23.6 °F /  -4.7 °C 29.93in /  1013.4hPa NE 2.0mph /  3.2km/h 7.0mph /  11.3km/h 74% 0.00in /  0mm
23:19 30.8 °F /  -0.7 °C 23.5 °F /  -4.7 °C 29.93in /  1013.4hPa NE 2.0mph /  3.2km/h 6.0mph /  9.7km/h 74% 0.00in /  0mm
23:24 30.6 °F /  -0.8 °C 23.3 °F /  -4.8 °C 29.93in /  1013.4hPa NE 2.0mph /  3.2km/h 6.0mph /  9.7km/h 74% 0.00in /  0mm
23:29 30.5 °F /  -0.8 °C 23.5 °F /  -4.7 °C 29.93in /  1013.4hPa ENE 2.0mph /  3.2km/h 5.0mph /  8km/h 75% 0.00in /  0mm
23:34 30.4 °F /  -0.9 °C 23.4 °F /  -4.8 °C 29.92in /  1013.1hPa ENE 2.0mph /  3.2km/h 5.0mph /  8km/h 75% 0.00in /  0mm
23:39 30.5 °F /  -0.8 °C 23.2 °F /  -4.9 °C 29.92in /  1013.1hPa ENE 2.0mph /  3.2km/h 5.0mph /  8km/h 74% 0.00in /  0mm
23:44 30.4 °F /  -0.9 °C 23.1 °F /  -4.9 °C 29.92in /  1013.1hPa ENE 1.0mph /  1.6km/h 5.0mph /  8km/h 74% 0.00in /  0mm
23:49 30.3 °F /  -0.9 °C 23.0 °F /  -5 °C 29.92in /  1013.1hPa ENE 1.0mph /  1.6km/h 3.0mph /  4.8km/h 74% 0.00in /  0mm
23:54 30.4 °F /  -0.9 °C 23.1 °F /  -4.9 °C 29.92in /  1013.1hPa ENE 2.0mph /  3.2km/h 5.0mph /  8km/h 74% 0.00in /  0mm
23:59 30.2 °F /  -1 °C 22.9 °F /  -5.1 °C 29.91in /  1012.8hPa ENE 1.0mph /  1.6km/h 4.0mph /  6.4km/h 74% 0.00in /  0mm
Buffalo, New York, USA
Compliments of Weather Underground - 2.5 mb